Time;durP1;ratioP1;P1;durP2;ratioP2;P2;SDS_P1;SDS_P2;PMS_P1;PMS_P2;Temp;Humidity;BMP_temperature;BMP_pressure;BME280_temperature;BME280_humidity;BME280_pressure;Samples;Min_cycle;Max_cycle;Signal;HPM_P1;HPM_P2
2023/10/29 00:01:58;;;;;;;11.83;8.07;;;7.80;99.90;;;;;;4989713;28;20659;-67
2023/10/29 00:04:35;;;;;;;12.57;9.10;;;7.70;99.90;;;;;;4989758;28;20199;-67
2023/10/29 00:07:14;;;;;;;11.37;8.83;;;7.70;99.90;;;;;;4989526;28;20197;-67
2023/10/29 00:09:47;;;;;;;13.83;9.40;;;7.70;99.90;;;;;;4989675;28;20276;-67
2023/10/29 00:12:25;;;;;;;13.57;9.60;;;7.70;99.90;;;;;;4989635;28;20213;-67
2023/10/29 00:14:54;;;;;;;11.63;9.37;;;7.70;99.90;;;;;;4913297;29;20210;-67
2023/10/29 00:17:23;;;;;;;11.37;9.73;;;7.70;99.90;;;;;;4929798;29;20239;-67
2023/10/29 00:19:53;;;;;;;12.50;9.60;;;7.70;99.90;;;;;;4932506;29;20566;-66
2023/10/29 00:22:21;;;;;;;13.23;10.57;;;7.70;99.90;;;;;;4932702;29;20737;-67
2023/10/29 00:24:52;;;;;;;14.20;9.77;;;7.80;99.90;;;;;;4932899;29;20228;-67
2023/10/29 00:27:21;;;;;;;16.10;10.40;;;7.80;99.90;;;;;;4932223;29;20353;-67
2023/10/29 00:29:50;;;;;;;15.37;10.30;;;7.70;99.90;;;;;;4932495;29;20216;-66
2023/10/29 00:32:22;;;;;;;12.40;9.73;;;7.70;99.90;;;;;;4942125;28;20202;-67
2023/10/29 00:34:54;;;;;;;14.97;9.33;;;7.60;99.90;;;;;;4991657;28;20307;-67
2023/10/29 00:37:23;;;;;;;13.90;9.80;;;7.50;99.90;;;;;;4992385;28;20221;-66
2023/10/29 00:39:53;;;;;;;13.50;9.93;;;7.50;99.90;;;;;;4982607;28;20198;-67
2023/10/29 00:42:32;;;;;;;12.53;9.67;;;7.50;99.90;;;;;;4973225;28;20205;-67
2023/10/29 00:45:10;;;;;;;14.20;9.30;;;7.60;99.90;;;;;;4979014;28;20204;-67
2023/10/29 00:47:40;;;;;;;8.80;7.90;;;7.50;99.90;;;;;;4992508;28;20190;-67
2023/10/29 00:50:09;;;;;;;8.73;7.83;;;7.30;99.90;;;;;;4992503;28;20212;-66
2023/10/29 00:52:38;;;;;;;9.57;7.90;;;7.00;99.90;;;;;;4992585;28;20198;-66
2023/10/29 00:55:32;;;;;;;9.33;7.50;;;7.10;99.90;;;;;;4992336;28;20197;-66
2023/10/29 00:58:12;;;;;;;8.20;7.23;;;7.20;99.90;;;;;;4992163;28;20226;-66
2023/10/29 01:00:49;;;;;;;7.80;7.00;;;7.10;99.90;;;;;;4991028;28;20227;-67
2023/10/29 01:03:26;;;;;;;8.67;7.43;;;7.10;99.90;;;;;;4974907;28;20213;-67
2023/10/29 01:06:02;;;;;;;8.50;7.10;;;7.10;99.90;;;;;;4992240;28;20229;-67
2023/10/29 01:08:59;;;;;;;9.83;7.57;;;7.00;99.90;;;;;;4992299;28;20200;-66
2023/10/29 01:11:34;;;;;;;8.40;6.70;;;7.00;99.90;;;;;;4991148;28;20219;-67
2023/10/29 01:14:06;;;;;;;8.80;6.97;;;7.00;99.90;;;;;;4974696;28;20234;-67
2023/10/29 01:16:45;;;;;;;8.20;6.97;;;6.80;99.90;;;;;;4992183;28;20219;-66
2023/10/29 01:19:32;;;;;;;9.03;7.27;;;6.90;99.90;;;;;;4992032;28;20204;-67
2023/10/29 01:22:26;;;;;;;9.67;7.20;;;6.90;99.90;;;;;;4992215;28;20259;-67
2023/10/29 01:25:13;;;;;;;8.77;6.77;;;7.00;99.90;;;;;;4991659;28;20216;-66
2023/10/29 01:27:50;;;;;;;7.50;6.67;;;6.90;99.90;;;;;;4990937;28;20217;-66
2023/10/29 01:30:50;;;;;;;10.37;7.67;;;6.90;99.90;;;;;;4991988;28;20286;-67
2023/10/29 01:33:32;;;;;;;8.43;7.53;;;7.10;99.90;;;;;;4990698;28;20200;-67
2023/10/29 01:36:20;;;;;;;8.27;6.80;;;7.20;99.90;;;;;;4991621;28;20243;-66
2023/10/29 01:38:49;;;;;;;8.10;6.57;;;7.30;99.90;;;;;;4992018;28;20214;-66
2023/10/29 01:41:18;;;;;;;8.93;6.93;;;7.30;99.90;;;;;;4991835;28;20202;-67
2023/10/29 01:44:15;;;;;;;8.73;7.23;;;7.20;99.90;;;;;;4990549;28;20689;-67
2023/10/29 01:46:55;;;;;;;9.20;7.70;;;7.20;99.90;;;;;;4974198;28;20610;-66
2023/10/29 01:49:29;;;;;;;10.43;7.57;;;7.30;99.90;;;;;;4973918;28;20213;-66
2023/10/29 01:52:13;;;;;;;11.97;8.57;;;7.40;99.90;;;;;;4990304;28;20564;-66
2023/10/29 01:54:57;;;;;;;15.23;11.07;;;7.50;99.90;;;;;;4991502;28;20196;-67
2023/10/29 01:57:34;;;;;;;14.57;8.03;;;7.50;99.90;;;;;;4973647;28;20668;-66
2023/10/29 02:00:07;;;;;;;12.53;8.30;;;7.60;99.90;;;;;;4974111;28;20589;-66
2023/10/29 02:02:45;;;;;;;9.73;7.80;;;7.60;99.90;;;;;;4991246;28;20287;-68
2023/10/29 02:05:29;;;;;;;10.87;7.87;;;7.60;99.90;;;;;;4991202;28;20210;-67
2023/10/29 02:08:18;;;;;;;10.20;7.57;;;7.60;99.90;;;;;;4990952;28;20198;-66
2023/10/29 02:10:55;;;;;;;12.57;8.40;;;7.60;99.90;;;;;;4990905;28;20194;-66
2023/10/29 02:13:45;;;;;;;12.87;10.07;;;7.50;99.90;;;;;;4991061;28;20200;-67
2023/10/29 02:16:16;;;;;;;11.03;9.67;;;7.50;99.90;;;;;;4930166;28;20221;-66
2023/10/29 02:18:51;;;;;;;12.40;8.00;;;7.50;99.90;;;;;;4990693;28;20225;-66
2023/10/29 02:21:23;;;;;;;9.60;6.83;;;7.50;99.90;;;;;;4990833;28;20285;-66
2023/10/29 02:24:12;;;;;;;9.50;6.40;;;7.50;99.90;;;;;;4991641;28;20208;-66
2023/10/29 02:26:47;;;;;;;8.97;6.50;;;7.50;99.90;;;;;;4990383;28;20267;-66
2023/10/29 02:29:39;;;;;;;6.53;5.93;;;7.50;99.90;;;;;;4989525;28;20214;-66
2023/10/29 02:32:39;;;;;;;5.10;4.60;;;7.50;99.90;;;;;;4930543;29;20240;-66
2023/10/29 02:35:34;;;;;;;5.33;4.73;;;7.30;99.90;;;;;;4930651;29;20198;-66
2023/10/29 02:38:20;;;;;;;5.43;4.90;;;7.00;99.90;;;;;;4930267;29;20229;-66
2023/10/29 02:40:52;;;;;;;8.40;4.97;;;7.20;99.90;;;;;;4914033;29;20580;-66
2023/10/29 02:43:20;;;;;;;6.57;5.50;;;7.20;99.90;;;;;;4930463;29;20224;-66
2023/10/29 02:46:11;;;;;;;6.23;5.30;;;7.40;99.90;;;;;;4930335;29;20205;-66
2023/10/29 02:48:59;;;;;;;7.10;4.60;;;7.30;99.90;;;;;;4930207;29;20208;-66
2023/10/29 02:51:57;;;;;;;5.50;4.87;;;7.20;99.90;;;;;;4930068;29;20782;-67
2023/10/29 02:54:34;;;;;;;5.77;4.70;;;7.10;99.90;;;;;;4914420;29;20224;-66
2023/10/29 02:57:09;;;;;;;8.90;5.97;;;7.20;99.90;;;;;;4913576;29;20687;-66
2023/10/29 02:59:42;;;;;;;10.23;6.03;;;7.20;99.90;;;;;;4929883;29;20206;-67
2023/10/29 03:02:10;;;;;;;6.47;5.30;;;7.20;99.90;;;;;;4930212;28;20226;-67
2023/10/29 03:04:50;;;;;;;6.67;5.57;;;6.90;99.90;;;;;;4930089;29;20332;-66
2023/10/29 03:07:35;;;;;;;6.17;5.17;;;6.90;99.90;;;;;;4930302;29;20311;-67
2023/10/29 03:10:13;;;;;;;7.07;5.80;;;7.00;99.90;;;;;;4950039;28;20219;-67
2023/10/29 03:12:52;;;;;;;6.33;5.33;;;7.10;99.90;;;;;;4971096;28;20574;-67
2023/10/29 03:15:43;;;;;;;5.73;5.10;;;6.90;99.90;;;;;;4970946;28;20298;-66
2023/10/29 03:18:14;;;;;;;7.07;6.13;;;6.80;99.90;;;;;;4970740;28;20623;-66
2023/10/29 03:20:56;;;;;;;8.27;5.97;;;6.90;99.90;;;;;;4969392;28;20313;-67
2023/10/29 03:23:35;;;;;;;7.53;6.13;;;7.10;99.90;;;;;;4970667;28;20203;-67
2023/10/29 03:26:24;;;;;;;8.10;5.90;;;7.30;99.90;;;;;;4968927;28;20220;-66
2023/10/29 03:29:47;;;;;;;7.13;6.37;;;7.20;99.90;;;;;;4970845;28;20252;-66
2023/10/29 03:32:34;;;;;;;6.00;5.40;;;7.20;99.90;;;;;;4970032;28;20241;-66
2023/10/29 03:35:21;;;;;;;10.00;6.83;;;7.30;99.90;;;;;;4969239;28;20205;-66
2023/10/29 03:37:49;;;;;;;8.50;6.27;;;7.30;99.90;;;;;;4970634;28;20313;-68
2023/10/29 03:40:29;;;;;;;7.07;6.00;;;7.30;99.90;;;;;;4970228;28;20728;-67
2023/10/29 03:42:58;;;;;;;6.77;6.03;;;7.10;99.90;;;;;;4970577;28;20285;-67
2023/10/29 03:45:35;;;;;;;7.90;6.57;;;7.10;99.90;;;;;;4970387;28;20194;-67
2023/10/29 03:48:06;;;;;;;7.30;6.50;;;7.00;99.90;;;;;;4970480;28;20229;-67
2023/10/29 03:50:38;;;;;;;7.30;6.50;;;7.00;99.90;;;;;;4969889;28;20628;-67
2023/10/29 03:53:08;;;;;;;8.43;7.07;;;7.00;99.90;;;;;;4971992;28;20199;-67
2023/10/29 03:55:45;;;;;;;7.03;6.27;;;7.10;99.90;;;;;;4972928;28;20209;-67
2023/10/29 03:58:13;;;;;;;7.50;5.80;;;6.90;99.90;;;;;;4993342;28;20229;-67
2023/10/29 04:00:52;;;;;;;7.53;6.13;;;6.80;99.90;;;;;;4993367;28;20198;-66
2023/10/29 04:03:21;;;;;;;8.90;6.80;;;6.70;99.90;;;;;;4993349;28;20283;-66
2023/10/29 04:05:50;;;;;;;10.33;6.97;;;6.90;99.90;;;;;;4993131;28;20214;-66
2023/10/29 04:08:22;;;;;;;8.53;7.10;;;6.90;99.90;;;;;;4993303;28;20203;-66
2023/10/29 04:11:02;;;;;;;8.37;6.00;;;7.00;99.90;;;;;;4992763;28;20202;-66
2023/10/29 04:13:46;;;;;;;8.83;6.90;;;6.90;99.90;;;;;;4993136;28;20208;-66
2023/10/29 04:16:43;;;;;;;7.77;6.40;;;7.00;99.90;;;;;;4993256;28;20192;-66
2023/10/29 04:19:24;;;;;;;7.00;6.23;;;7.10;99.90;;;;;;4992946;28;20233;-66
2023/10/29 04:21:53;;;;;;;8.07;6.17;;;7.00;99.90;;;;;;4992940;28;20200;-66
2023/10/29 04:24:45;;;;;;;8.37;6.00;;;7.10;99.90;;;;;;4992814;28;20211;-67
2023/10/29 04:27:54;;;;;;;9.77;7.00;;;7.30;99.90;;;;;;4992536;28;20664;-66
2023/10/29 04:30:53;;;;;;;6.97;5.97;;;7.30;99.90;;;;;;4992674;28;20283;-66
2023/10/29 04:33:31;;;;;;;7.03;6.20;;;7.30;99.90;;;;;;4992865;28;20192;-66
2023/10/29 04:36:08;;;;;;;12.27;8.20;;;7.50;99.90;;;;;;4992786;28;20340;-66
2023/10/29 04:38:49;;;;;;;10.50;7.67;;;7.50;99.90;;;;;;4992642;28;20235;-66
2023/10/29 04:41:18;;;;;;;10.53;7.40;;;7.50;99.90;;;;;;4992316;28;20201;-67
2023/10/29 04:44:02;;;;;;;7.67;6.70;;;7.40;99.90;;;;;;4992754;28;20197;-66
2023/10/29 04:46:48;;;;;;;7.33;6.47;;;7.30;99.90;;;;;;4992449;28;20932;-67
2023/10/29 04:49:24;;;;;;;10.83;6.83;;;7.40;99.90;;;;;;4992725;28;20270;-66
2023/10/29 04:52:06;;;;;;;9.13;7.17;;;7.50;99.90;;;;;;4992361;28;20214;-66
2023/10/29 04:54:39;;;;;;;7.00;6.37;;;7.50;99.90;;;;;;4992227;28;20283;-66
2023/10/29 04:57:26;;;;;;;9.10;7.00;;;7.50;99.90;;;;;;4991835;28;20232;-66
2023/10/29 05:00:00;;;;;;;8.97;6.50;;;7.50;99.90;;;;;;4992385;28;20239;-66
2023/10/29 05:02:32;;;;;;;7.93;6.53;;;7.50;99.90;;;;;;4992053;28;20204;-66
2023/10/29 05:07:48;;;;;;;7.27;6.10;;;7.50;99.90;;;;;;4988500;28;20310;-66
2023/10/29 05:10:16;;;;;;;7.10;6.27;;;7.40;99.90;;;;;;4992518;28;20610;-66
2023/10/29 05:12:56;;;;;;;17.60;9.27;;;7.40;99.90;;;;;;4991966;28;20219;-66
2023/10/29 05:15:31;;;;;;;19.13;12.33;;;7.50;99.90;;;;;;4992024;28;20205;-66
2023/10/29 05:18:22;;;;;;;7.13;6.40;;;7.40;99.90;;;;;;4985190;28;20202;-66
2023/10/29 05:20:52;;;;;;;7.63;6.57;;;7.30;99.90;;;;;;4991662;28;20216;-66
2023/10/29 05:26:40;;;;;;;6.87;6.03;;;7.20;99.90;;;;;;4968739;28;20233;-67
2023/10/29 05:29:15;;;;;;;5.97;5.43;;;7.20;99.90;;;;;;4991826;28;20226;-66
2023/10/29 05:31:49;;;;;;;6.90;6.17;;;7.30;99.90;;;;;;4992037;28;20217;-67
2023/10/29 05:34:20;;;;;;;7.37;5.87;;;7.30;99.90;;;;;;4991627;28;20206;-67
2023/10/29 05:36:58;;;;;;;6.70;5.93;;;7.40;99.90;;;;;;4991557;28;20198;-67
2023/10/29 05:39:45;;;;;;;12.53;11.37;;;7.40;99.90;;;;;;4990737;28;20236;-66
2023/10/29 05:42:29;;;;;;;14.53;13.13;;;7.40;99.90;;;;;;4991534;28;20212;-67
2023/10/29 05:45:31;;;;;;;10.17;9.20;;;7.30;99.90;;;;;;4947495;28;20730;-67
2023/10/29 05:51:20;;;;;;;7.07;6.37;;;7.40;99.90;;;;;;4991327;28;20210;-66
2023/10/29 05:54:10;;;;;;;7.80;6.47;;;7.20;99.90;;;;;;4991125;28;20557;-66
2023/10/29 05:59:50;;;;;;;11.13;8.50;;;7.30;99.90;;;;;;4972040;28;20223;-66
2023/10/29 06:02:24;;;;;;;10.57;9.47;;;7.20;99.90;;;;;;4971987;28;20201;-67
2023/10/29 06:04:52;;;;;;;45.27;33.87;;;7.20;99.90;;;;;;4972031;28;20209;-67
2023/10/29 06:07:21;;;;;;;22.50;19.73;;;7.30;99.90;;;;;;4971902;28;20229;-67
2023/10/29 06:10:23;;;;;;;18.37;16.50;;;7.20;99.90;;;;;;4972042;28;20206;-67
2023/10/29 06:13:04;;;;;;;15.33;13.23;;;7.30;99.90;;;;;;4892868;29;20217;-67
2023/10/29 06:15:55;;;;;;;14.70;13.20;;;7.50;99.90;;;;;;4892927;29;20515;-67
2023/10/29 06:18:33;;;;;;;16.03;12.97;;;7.50;99.90;;;;;;4893293;29;20561;-67
2023/10/29 06:21:03;;;;;;;22.90;20.20;;;7.50;99.90;;;;;;4877392;29;20609;-67
2023/10/29 06:23:35;;;;;;;11.37;7.93;;;7.50;99.90;;;;;;4899112;29;20240;-67
2023/10/29 06:26:16;;;;;;;12.80;8.73;;;7.20;99.90;;;;;;4911790;29;20208;-66
2023/10/29 06:28:50;;;;;;;16.67;11.50;;;7.30;99.90;;;;;;4911552;29;20206;-67
2023/10/29 06:31:34;;;;;;;16.60;12.80;;;7.40;99.90;;;;;;4911588;29;20646;-67
2023/10/29 06:34:06;;;;;;;16.03;12.20;;;7.30;99.90;;;;;;4911459;29;20215;-67
2023/10/29 06:36:38;;;;;;;13.63;12.03;;;7.50;99.90;;;;;;4911355;29;20303;-67
2023/10/29 06:39:08;;;;;;;13.17;11.87;;;7.30;99.90;;;;;;4911390;29;21082;-67
2023/10/29 06:41:39;;;;;;;15.70;12.80;;;7.50;99.90;;;;;;4910949;29;20234;-67
2023/10/29 06:44:12;;;;;;;21.73;18.87;;;7.60;99.90;;;;;;4910109;29;20316;-66
2023/10/29 06:46:46;;;;;;;14.83;9.50;;;7.60;99.90;;;;;;4911410;29;20307;-66
2023/10/29 06:49:15;;;;;;;13.27;8.80;;;7.50;99.90;;;;;;4944660;28;20221;-66
2023/10/29 06:51:55;;;;;;;14.67;9.93;;;7.50;99.90;;;;;;4990521;28;20197;-66
2023/10/29 06:54:27;;;;;;;11.17;8.43;;;7.70;99.90;;;;;;4989958;28;20206;-66
2023/10/29 06:57:09;;;;;;;9.80;7.73;;;7.60;99.90;;;;;;4989778;28;20241;-67
2023/10/29 06:59:47;;;;;;;8.93;6.87;;;7.40;99.90;;;;;;4990217;28;20243;-67
2023/10/29 07:02:30;;;;;;;8.93;8.03;;;7.40;99.90;;;;;;4990161;28;20249;-66
2023/10/29 07:05:06;;;;;;;12.50;8.33;;;7.30;99.90;;;;;;4989922;28;20201;-67
2023/10/29 07:07:42;;;;;;;13.00;9.17;;;7.40;99.90;;;;;;4989987;28;20752;-67
2023/10/29 07:10:11;;;;;;;33.93;21.63;;;7.70;99.90;;;;;;4990158;28;20205;-67
2023/10/29 07:12:46;;;;;;;9.93;8.87;;;7.70;99.90;;;;;;4990097;28;20258;-67
2023/10/29 07:15:18;;;;;;;10.47;9.13;;;7.70;99.90;;;;;;4990108;28;20193;-67
2023/10/29 07:17:50;;;;;;;14.63;9.57;;;7.70;99.90;;;;;;4990147;28;20661;-66
2023/10/29 07:20:19;;;;;;;15.40;10.67;;;7.60;99.90;;;;;;4990083;28;21096;-67
2023/10/29 07:22:55;;;;;;;12.03;9.40;;;7.70;99.90;;;;;;4989871;28;20193;-68
2023/10/29 07:25:37;;;;;;;14.30;9.90;;;7.60;99.90;;;;;;4988413;28;20208;-67
2023/10/29 07:28:13;;;;;;;13.93;10.33;;;7.70;99.90;;;;;;4994438;28;20199;-66
2023/10/29 07:30:49;;;;;;;11.90;9.60;;;7.80;99.90;;;;;;4994642;28;20232;-66
2023/10/29 07:33:18;;;;;;;14.30;9.57;;;7.90;99.90;;;;;;4994464;28;20273;-66
2023/10/29 07:35:52;;;;;;;15.17;11.30;;;7.90;99.90;;;;;;4994790;28;20851;-66
2023/10/29 07:38:25;;;;;;;12.57;9.70;;;7.80;99.90;;;;;;4994070;28;20265;-66
2023/10/29 07:41:03;;;;;;;14.00;9.47;;;8.10;99.90;;;;;;4994401;28;20207;-66
2023/10/29 07:43:33;;;;;;;13.10;9.53;;;8.30;99.90;;;;;;4994243;28;20656;-66
2023/10/29 07:46:03;;;;;;;12.50;9.93;;;8.40;99.90;;;;;;4994551;28;20197;-67
2023/10/29 07:48:32;;;;;;;13.30;9.67;;;8.40;99.90;;;;;;4994307;28;20537;-66
2023/10/29 07:51:01;;;;;;;10.67;9.33;;;8.30;99.90;;;;;;4994559;28;20194;-66
2023/10/29 07:53:30;;;;;;;14.23;9.73;;;8.20;99.90;;;;;;4993820;28;20190;-66
2023/10/29 07:56:09;;;;;;;12.77;9.93;;;8.10;99.90;;;;;;4994279;28;20214;-67
2023/10/29 07:58:44;;;;;;;13.53;9.90;;;8.10;99.90;;;;;;4955098;28;20218;-66
2023/10/29 08:01:14;;;;;;;14.07;9.93;;;8.10;99.90;;;;;;4954494;28;20235;-66
2023/10/29 08:03:48;;;;;;;15.53;9.07;;;8.10;99.90;;;;;;4955279;28;20255;-65
2023/10/29 08:06:28;;;;;;;11.90;10.27;;;8.00;99.90;;;;;;4955359;28;20267;-67
2023/10/29 08:08:57;;;;;;;13.40;10.63;;;8.10;99.90;;;;;;4954734;28;20656;-67
2023/10/29 08:11:26;;;;;;;13.73;11.40;;;8.10;99.90;;;;;;4955229;28;20669;-66
2023/10/29 08:13:58;;;;;;;12.73;10.27;;;8.20;99.90;;;;;;4955009;28;20198;-67
2023/10/29 08:16:28;;;;;;;17.00;11.70;;;8.30;99.90;;;;;;4955356;28;20576;-67
2023/10/29 08:18:59;;;;;;;12.80;10.60;;;8.30;99.90;;;;;;4955327;28;20768;-66
2023/10/29 08:21:28;;;;;;;19.60;11.50;;;8.40;99.90;;;;;;4955325;28;20234;-66
2023/10/29 08:24:00;;;;;;;23.70;16.43;;;8.40;99.90;;;;;;4954935;28;20188;-66
2023/10/29 08:26:32;;;;;;;13.90;11.13;;;8.50;99.90;;;;;;4954973;28;20275;-66
2023/10/29 08:29:06;;;;;;;16.47;12.53;;;8.40;99.90;;;;;;4954892;28;20209;-66
2023/10/29 08:31:35;;;;;;;17.93;13.03;;;8.50;99.90;;;;;;4943928;28;20741;-66
2023/10/29 08:34:05;;;;;;;13.17;11.57;;;8.50;99.90;;;;;;4955280;28;20216;-67
2023/10/29 08:36:38;;;;;;;13.80;11.93;;;8.30;99.90;;;;;;4954269;28;20192;-67
2023/10/29 08:39:07;;;;;;;12.53;10.50;;;8.30;99.90;;;;;;4954494;28;20213;-66
2023/10/29 08:41:36;;;;;;;20.23;14.70;;;8.10;99.90;;;;;;4954584;28;20227;-66
2023/10/29 08:44:07;;;;;;;18.50;12.70;;;8.10;99.90;;;;;;4954638;28;20222;-66
2023/10/29 08:46:38;;;;;;;15.80;11.97;;;8.20;99.90;;;;;;4958115;28;20256;-67
2023/10/29 08:49:07;;;;;;;17.33;12.27;;;8.30;99.90;;;;;;4943990;29;20211;-67
2023/10/29 08:51:35;;;;;;;15.20;11.57;;;8.40;99.90;;;;;;4935201;29;20203;-68
2023/10/29 08:54:08;;;;;;;15.93;12.30;;;8.30;99.90;;;;;;4935495;29;20237;-67
2023/10/29 08:56:40;;;;;;;21.37;12.93;;;8.40;99.90;;;;;;4942371;28;20242;-67
2023/10/29 08:59:10;;;;;;;15.30;11.60;;;8.50;99.90;;;;;;4973455;28;20203;-68
2023/10/29 09:01:40;;;;;;;18.83;12.77;;;8.40;99.90;;;;;;4985742;28;20234;-68
2023/10/29 09:04:10;;;;;;;18.60;14.37;;;8.40;99.90;;;;;;4974660;28;20217;-67
2023/10/29 09:06:49;;;;;;;20.67;15.40;;;8.50;99.90;;;;;;4973089;28;20227;-65
2023/10/29 09:09:21;;;;;;;26.93;18.70;;;8.50;99.90;;;;;;4973836;28;20203;-65
2023/10/29 09:11:53;;;;;;;24.43;16.20;;;8.40;99.90;;;;;;4973797;28;20195;-65
2023/10/29 09:14:23;;;;;;;35.50;22.17;;;8.40;99.90;;;;;;4973479;28;20196;-66
2023/10/29 09:16:58;;;;;;;20.50;13.67;;;8.50;99.90;;;;;;4973113;28;20468;-66
2023/10/29 09:19:32;;;;;;;22.03;14.50;;;8.50;99.90;;;;;;4973488;28;20200;-65
2023/10/29 09:22:07;;;;;;;27.40;18.53;;;8.50;99.90;;;;;;4972921;28;20243;-65
2023/10/29 09:24:36;;;;;;;24.80;16.50;;;8.60;99.90;;;;;;4973359;28;20562;-65
2023/10/29 09:27:07;;;;;;;22.10;14.57;;;8.60;99.90;;;;;;4971821;28;20235;-66
2023/10/29 09:29:40;;;;;;;25.07;16.33;;;8.60;99.90;;;;;;4973107;28;20205;-65
2023/10/29 09:32:09;;;;;;;24.40;16.77;;;8.60;99.90;;;;;;4985871;28;20298;-68
2023/10/29 09:34:44;;;;;;;18.00;14.17;;;8.60;99.90;;;;;;5000763;28;20799;-65
2023/10/29 09:37:16;;;;;;;21.63;13.80;;;8.60;99.90;;;;;;5011172;28;20604;-66
2023/10/29 09:39:45;;;;;;;21.37;13.80;;;8.50;99.90;;;;;;5012419;28;20222;-67
2023/10/29 09:42:22;;;;;;;25.40;16.57;;;8.40;99.90;;;;;;5012304;28;20221;-65
2023/10/29 09:44:55;;;;;;;25.47;18.00;;;8.30;99.90;;;;;;5011818;28;20250;-66
2023/10/29 09:47:27;;;;;;;22.30;16.40;;;8.20;99.90;;;;;;5012210;28;20244;-66
2023/10/29 09:49:56;;;;;;;20.77;14.77;;;8.30;99.90;;;;;;5010753;28;20630;-66
2023/10/29 09:52:28;;;;;;;22.43;16.57;;;8.20;99.90;;;;;;5012224;28;20678;-66
2023/10/29 09:54:58;;;;;;;32.40;22.53;;;8.30;99.90;;;;;;5011843;28;20299;-66
2023/10/29 09:57:27;;;;;;;24.37;17.73;;;8.40;99.90;;;;;;5011584;28;20338;-66
2023/10/29 09:59:58;;;;;;;18.60;13.90;;;8.40;99.90;;;;;;5011526;28;20194;-66
2023/10/29 10:02:27;;;;;;;14.80;11.20;;;8.40;99.90;;;;;;5011573;28;20236;-66
2023/10/29 10:04:57;;;;;;;20.47;14.03;;;8.20;99.90;;;;;;4990783;28;20225;-66
2023/10/29 10:07:27;;;;;;;15.63;11.27;;;8.10;99.90;;;;;;4991827;28;20206;-66
2023/10/29 10:09:57;;;;;;;17.50;13.00;;;7.90;99.90;;;;;;4991815;28;20612;-66
2023/10/29 10:12:27;;;;;;;25.07;17.47;;;7.80;99.90;;;;;;4991596;28;20221;-66
2023/10/29 10:15:07;;;;;;;16.97;13.00;;;7.90;99.90;;;;;;4991403;28;20277;-67
2023/10/29 10:17:36;;;;;;;16.93;12.60;;;8.10;99.90;;;;;;4991721;28;20198;-66
2023/10/29 10:20:08;;;;;;;16.43;13.10;;;8.00;99.90;;;;;;4991396;28;20208;-67
2023/10/29 10:22:37;;;;;;;15.87;11.20;;;8.00;99.90;;;;;;4991623;28;20330;-66
2023/10/29 10:25:09;;;;;;;17.70;13.43;;;8.00;99.90;;;;;;4973116;28;20985;-66
2023/10/29 10:27:51;;;;;;;12.40;9.73;;;7.90;99.90;;;;;;4991477;28;20205;-67
2023/10/29 10:30:29;;;;;;;16.67;11.77;;;7.60;99.90;;;;;;4991086;28;20218;-66
2023/10/29 10:33:16;;;;;;;13.77;10.87;;;7.40;99.90;;;;;;4990166;28;20256;-67
2023/10/29 10:35:54;;;;;;;22.67;16.67;;;7.50;99.90;;;;;;4990997;28;20327;-67
2023/10/29 10:38:23;;;;;;;64.43;42.03;;;7.70;99.90;;;;;;4991161;28;20194;-67
2023/10/29 10:40:58;;;;;;;15.13;12.17;;;7.90;99.90;;;;;;4991449;28;20203;-66
2023/10/29 10:43:29;;;;;;;20.07;16.40;;;7.60;99.90;;;;;;4991026;28;20899;-67
2023/10/29 10:46:15;;;;;;;13.90;12.13;;;7.70;99.90;;;;;;4991020;28;20201;-68
2023/10/29 10:48:44;;;;;;;12.17;10.33;;;7.80;99.90;;;;;;4990721;28;20203;-67
2023/10/29 10:51:20;;;;;;;19.53;14.63;;;7.70;99.90;;;;;;4991140;28;20192;-66
2023/10/29 10:53:51;;;;;;;37.17;31.37;;;7.80;99.90;;;;;;4990983;28;20197;-67
2023/10/29 10:56:21;;;;;;;20.80;17.07;;;7.90;99.90;;;;;;4973081;28;20264;-67
2023/10/29 10:58:53;;;;;;;13.80;12.47;;;8.00;99.90;;;;;;4990795;28;20668;-68
2023/10/29 11:01:29;;;;;;;15.47;12.80;;;8.00;99.90;;;;;;4990413;28;20679;-68
2023/10/29 11:03:59;;;;;;;11.27;8.93;;;8.10;99.90;;;;;;4990573;28;20306;-65
2023/10/29 11:06:29;;;;;;;9.30;8.13;;;7.90;99.90;;;;;;4990729;28;20217;-68
2023/10/29 11:08:59;;;;;;;11.90;9.43;;;7.80;99.90;;;;;;4990615;28;20209;-68
2023/10/29 11:11:35;;;;;;;9.80;8.80;;;7.90;99.90;;;;;;4990801;28;20204;-67
2023/10/29 11:14:12;;;;;;;13.37;11.10;;;7.90;99.90;;;;;;4990549;28;20202;-67
2023/10/29 11:16:50;;;;;;;12.70;9.57;;;8.10;99.90;;;;;;4990251;28;20289;-67
2023/10/29 11:19:46;;;;;;;11.17;9.07;;;8.20;99.90;;;;;;4990777;28;20224;-67
2023/10/29 11:22:31;;;;;;;10.17;8.17;;;8.00;99.90;;;;;;4990003;28;20248;-67
2023/10/29 11:25:28;;;;;;;10.67;9.57;;;7.80;99.90;;;;;;4995750;28;20670;-67
2023/10/29 11:28:10;;;;;;;12.13;10.50;;;7.70;99.90;;;;;;5010022;28;20201;-66
2023/10/29 11:30:43;;;;;;;12.30;8.90;;;7.80;99.90;;;;;;5009512;28;20205;-67
2023/10/29 11:33:24;;;;;;;11.83;9.33;;;7.70;99.90;;;;;;5005128;28;20205;-67
2023/10/29 11:36:33;;;;;;;17.00;15.10;;;7.70;99.90;;;;;;4990561;28;20199;-67
2023/10/29 11:39:36;;;;;;;14.40;11.50;;;7.70;99.90;;;;;;4990559;28;20229;-68
2023/10/29 11:42:36;;;;;;;23.63;21.47;;;7.70;99.90;;;;;;4990642;28;20246;-67
2023/10/29 11:45:49;;;;;;;13.07;11.27;;;7.80;99.90;;;;;;4990035;28;20229;-67
2023/10/29 11:49:03;;;;;;;13.83;12.43;;;8.00;99.90;;;;;;4911265;29;20206;-67
2023/10/29 11:51:32;;;;;;;13.50;10.97;;;8.00;99.90;;;;;;4922720;29;20222;-67
2023/10/29 11:54:03;;;;;;;8.87;7.80;;;8.10;99.90;;;;;;4911107;29;20210;-67
2023/10/29 11:56:34;;;;;;;9.17;8.27;;;8.00;99.90;;;;;;4910655;29;20240;-67
2023/10/29 11:59:07;;;;;;;12.10;8.77;;;7.90;99.90;;;;;;4910942;29;20239;-66
2023/10/29 12:01:41;;;;;;;9.53;8.53;;;7.80;99.90;;;;;;4916395;29;20212;-67
2023/10/29 12:04:13;;;;;;;12.67;9.00;;;7.90;99.90;;;;;;4926890;28;20209;-67
2023/10/29 12:06:43;;;;;;;12.20;10.67;;;8.00;99.90;;;;;;4914559;29;20756;-67
2023/10/29 12:09:16;;;;;;;11.07;9.40;;;8.10;99.90;;;;;;4913850;29;20212;-68
2023/10/29 12:11:45;;;;;;;10.73;8.60;;;8.10;99.90;;;;;;4930108;29;20204;-66
2023/10/29 12:14:14;;;;;;;14.80;11.20;;;8.10;99.90;;;;;;4931289;29;20201;-67
2023/10/29 12:16:43;;;;;;;8.90;7.70;;;7.90;99.90;;;;;;4933182;29;20236;-66
2023/10/29 12:22:03;;;;;;;8.17;6.57;;;7.70;99.90;;;;;;4955398;28;20265;-67
2023/10/29 12:24:39;;;;;;;7.50;6.43;;;7.90;99.90;;;;;;4993477;28;20302;-66
2023/10/29 12:27:08;;;;;;;7.90;6.70;;;7.80;99.90;;;;;;4992949;28;20202;-66
2023/10/29 12:29:38;;;;;;;8.47;7.50;;;7.90;99.90;;;;;;4992641;28;20290;-67
2023/10/29 12:32:23;;;;;;;7.57;6.83;;;7.90;99.90;;;;;;4993584;28;20201;-67
2023/10/29 12:34:59;;;;;;;11.33;10.13;;;8.10;99.90;;;;;;4993002;28;20210;-66
2023/10/29 12:37:33;;;;;;;7.30;6.60;;;8.00;99.90;;;;;;4993057;28;20196;-67
2023/10/29 12:40:05;;;;;;;20.10;13.87;;;7.90;99.90;;;;;;4993371;28;20201;-67
2023/10/29 12:43:16;;;;;;;10.10;8.70;;;8.10;99.90;;;;;;4993215;28;20237;-67
2023/10/29 12:46:01;;;;;;;9.50;8.60;;;8.20;99.90;;;;;;4913784;29;20793;-66
2023/10/29 12:48:36;;;;;;;10.77;8.90;;;8.40;99.90;;;;;;4897829;29;20226;-66
2023/10/29 12:51:31;;;;;;;8.80;7.90;;;8.30;99.90;;;;;;4913931;29;20213;-66
2023/10/29 12:54:12;;;;;;;8.57;6.40;;;8.40;99.90;;;;;;4904082;29;20220;-66
2023/10/29 12:56:54;;;;;;;6.93;6.27;;;8.30;99.90;;;;;;4907649;29;20254;-68
2023/10/29 12:59:27;;;;;;;8.00;5.83;;;8.40;99.90;;;;;;4912995;29;20209;-68
2023/10/29 13:02:13;;;;;;;7.63;6.60;;;8.50;99.90;;;;;;4913821;29;20220;-67
2023/10/29 13:08:14;;;;;;;7.17;6.43;;;8.50;99.90;;;;;;4831218;29;20219;-67
2023/10/29 13:10:46;;;;;;;7.20;6.37;;;8.40;99.90;;;;;;4857236;29;20871;-66
2023/10/29 13:13:29;;;;;;;8.60;7.23;;;8.50;99.90;;;;;;4857240;29;20274;-67
2023/10/29 13:16:03;;;;;;;12.17;9.03;;;8.60;99.90;;;;;;4857313;29;20238;-67
2023/10/29 13:18:35;;;;;;;11.77;10.50;;;8.60;99.90;;;;;;4857216;29;20219;-67
2023/10/29 13:21:13;;;;;;;11.87;8.90;;;8.70;99.90;;;;;;4857227;29;20296;-67
2023/10/29 13:23:55;;;;;;;17.43;11.77;;;8.80;99.90;;;;;;4924428;29;20749;-67
2023/10/29 13:26:46;;;;;;;11.00;9.80;;;8.80;99.90;;;;;;4898492;29;20610;-67
2023/10/29 13:29:53;;;;;;;11.87;9.43;;;8.80;99.90;;;;;;4931018;29;20217;-67
2023/10/29 13:32:22;;;;;;;12.00;8.90;;;8.90;99.90;;;;;;4894331;29;20214;-67
2023/10/29 13:34:54;;;;;;;11.20;9.37;;;8.90;99.90;;;;;;4893916;29;20208;-67
2023/10/29 13:37:23;;;;;;;11.93;9.80;;;8.90;99.90;;;;;;4894132;29;20210;-68
2023/10/29 13:40:06;;;;;;;13.10;10.57;;;9.00;99.90;;;;;;4933709;29;20223;-67
2023/10/29 13:42:37;;;;;;;11.27;9.70;;;9.00;99.90;;;;;;4950612;28;20212;-67
2023/10/29 13:45:09;;;;;;;15.93;11.80;;;9.10;99.90;;;;;;4950724;28;20572;-67
2023/10/29 13:47:47;;;;;;;11.87;9.57;;;9.30;99.90;;;;;;4950997;28;20306;-68
2023/10/29 13:50:25;;;;;;;14.57;10.87;;;9.20;99.90;;;;;;4950138;28;20209;-68
2023/10/29 13:53:07;;;;;;;14.70;11.80;;;9.30;99.90;;;;;;4935165;28;20236;-67
2023/10/29 13:55:45;;;;;;;15.83;11.57;;;9.50;99.90;;;;;;4933919;28;20207;-67
2023/10/29 13:58:37;;;;;;;14.87;11.97;;;9.60;99.90;;;;;;4942438;28;20248;-67